Time;durP1;ratioP1;P1;durP2;ratioP2;P2;SDS_P1;SDS_P2;PMS_P1;PMS_P2;Temp;Humidity;BMP_temperature;BMP_pressure;BME280_temperature;BME280_humidity;BME280_pressure;Samples;Min_cycle;Max_cycle;Signal;HPM_P1;HPM_P2
2022/07/02 04:05:33;;;;;;;2.10;2.00;;;12.60;99.90;;;;;;5012731;28;20227;-65
2022/07/02 04:07:59;;;;;;;2.47;2.30;;;12.60;99.90;;;;;;5015084;28;20428;-66
2022/07/02 04:10:24;;;;;;;2.73;2.33;;;12.70;99.90;;;;;;5014507;28;20179;-66
2022/07/02 04:12:50;;;;;;;2.47;2.23;;;12.70;99.90;;;;;;5014156;28;20281;-66
2022/07/02 04:15:16;;;;;;;3.10;2.77;;;12.70;99.90;;;;;;5012978;28;20201;-67
2022/07/02 04:17:41;;;;;;;3.70;2.50;;;12.90;99.90;;;;;;5014891;28;20365;-66
2022/07/02 04:20:07;;;;;;;2.97;2.77;;;13.40;99.90;;;;;;5013579;28;20200;-67
2022/07/02 04:22:33;;;;;;;2.40;2.30;;;13.80;99.90;;;;;;5014347;28;20181;-66
2022/07/02 04:24:59;;;;;;;2.53;2.33;;;14.10;99.90;;;;;;5014423;28;20448;-67
2022/07/02 04:27:24;;;;;;;2.30;2.10;;;14.20;99.90;;;;;;5014872;28;20495;-67
2022/07/02 04:29:50;;;;;;;2.10;1.90;;;14.20;99.90;;;;;;5014770;28;20197;-67
2022/07/02 04:32:16;;;;;;;2.50;2.30;;;14.30;99.90;;;;;;5014737;28;20170;-67
2022/07/02 04:34:41;;;;;;;2.53;2.33;;;14.30;99.90;;;;;;5013234;28;20209;-67
2022/07/02 04:37:07;;;;;;;2.47;2.27;;;14.40;99.90;;;;;;5014622;28;20173;-66
2022/07/02 04:39:32;;;;;;;2.77;2.57;;;14.50;99.90;;;;;;5014163;28;20176;-67
2022/07/02 04:41:58;;;;;;;2.50;2.30;;;14.70;99.90;;;;;;5013877;28;20171;-67
2022/07/02 04:44:25;;;;;;;2.80;2.30;;;14.80;99.90;;;;;;5013858;28;20191;-69
2022/07/02 04:46:51;;;;;;;2.10;2.00;;;14.90;99.90;;;;;;5014514;28;20189;-68
2022/07/02 04:49:16;;;;;;;3.67;1.70;;;15.00;99.90;;;;;;5014420;28;20766;-66
2022/07/02 04:51:42;;;;;;;2.20;2.00;;;15.20;99.90;;;;;;5014175;28;20183;-67
2022/07/02 04:54:08;;;;;;;2.40;2.20;;;15.30;99.90;;;;;;5013551;28;20191;-68
2022/07/02 04:56:33;;;;;;;2.23;2.03;;;15.50;99.90;;;;;;5013050;28;20634;-69
2022/07/02 04:58:59;;;;;;;1.77;1.67;;;15.60;99.90;;;;;;5012987;28;20260;-68
2022/07/02 05:01:25;;;;;;;1.87;1.77;;;15.50;99.90;;;;;;5013073;28;20186;-68
2022/07/02 05:03:51;;;;;;;2.03;1.93;;;15.40;99.90;;;;;;5013612;28;20187;-68
2022/07/02 05:06:18;;;;;;;1.90;1.80;;;15.40;99.90;;;;;;5013993;28;20189;-68
2022/07/02 05:08:44;;;;;;;1.70;1.60;;;15.40;99.90;;;;;;5014249;28;20409;-68
2022/07/02 05:11:10;;;;;;;1.57;1.47;;;15.40;99.90;;;;;;5013097;28;20409;-70
2022/07/02 05:13:35;;;;;;;9.53;1.63;;;15.40;99.90;;;;;;5013393;28;20207;-68
2022/07/02 05:16:01;;;;;;;1.50;1.40;;;15.50;99.90;;;;;;5014042;28;20550;-69
2022/07/02 05:18:26;;;;;;;1.50;1.50;;;15.70;99.90;;;;;;5013866;28;20203;-68
2022/07/02 05:20:52;;;;;;;2.30;1.60;;;16.10;99.90;;;;;;5014151;28;20168;-67
2022/07/02 05:23:18;;;;;;;1.70;1.60;;;16.30;99.90;;;;;;5013401;28;20186;-69
2022/07/02 05:25:43;;;;;;;1.80;1.70;;;16.60;99.90;;;;;;5013604;28;20183;-66
2022/07/02 05:28:09;;;;;;;1.73;1.63;;;16.60;99.90;;;;;;5013823;28;20181;-68
2022/07/02 05:30:34;;;;;;;1.40;1.30;;;16.60;99.90;;;;;;5013471;28;20195;-67
2022/07/02 05:33:00;;;;;;;1.53;1.43;;;16.60;99.90;;;;;;5013320;28;20171;-68
2022/07/02 05:35:26;;;;;;;3.47;1.50;;;16.70;99.90;;;;;;5013575;28;20180;-68
2022/07/02 05:37:51;;;;;;;1.27;1.27;;;16.70;99.90;;;;;;5013576;28;20672;-69
2022/07/02 05:40:19;;;;;;;1.90;1.80;;;16.70;99.90;;;;;;5013558;28;20222;-67
2022/07/02 05:42:44;;;;;;;1.80;1.50;;;16.70;99.90;;;;;;5013196;28;20411;-67
2022/07/02 05:45:10;;;;;;;1.23;1.20;;;16.70;99.90;;;;;;5013238;28;20203;-68
2022/07/02 05:47:36;;;;;;;2.40;1.57;;;16.60;99.90;;;;;;5013345;28;20174;-69
2022/07/02 05:50:02;;;;;;;1.80;1.70;;;16.70;99.90;;;;;;5012278;28;20929;-69
2022/07/02 05:52:27;;;;;;;2.50;1.70;;;16.80;99.90;;;;;;5013079;28;20172;-68
2022/07/02 05:54:53;;;;;;;3.80;1.87;;;16.90;99.90;;;;;;5013460;28;20408;-69
2022/07/02 05:57:19;;;;;;;1.40;1.40;;;17.00;99.90;;;;;;5013501;28;20266;-69
2022/07/02 05:59:44;;;;;;;1.27;1.20;;;17.20;99.90;;;;;;5013204;28;20189;-69
2022/07/02 06:02:10;;;;;;;1.03;1.03;;;17.20;99.90;;;;;;5013172;28;20560;-68
2022/07/02 06:04:36;;;;;;;1.57;1.47;;;17.40;99.90;;;;;;5013325;28;20197;-69
2022/07/02 06:09:46;;;;;;;2.53;1.73;;;17.60;99.90;;;;;;5013517;28;20238;-69
2022/07/02 06:12:11;;;;;;;1.37;1.30;;;17.60;99.90;;;;;;5011813;28;20491;-69
2022/07/02 06:14:37;;;;;;;1.93;1.13;;;17.70;99.90;;;;;;5012847;28;20426;-69
2022/07/02 06:17:03;;;;;;;0.90;0.90;;;17.70;99.90;;;;;;5013201;28;20616;-70
2022/07/02 06:19:28;;;;;;;2.33;1.13;;;17.70;99.90;;;;;;5011939;28;20177;-68
2022/07/02 06:21:54;;;;;;;1.10;1.10;;;17.80;99.90;;;;;;5015494;28;20177;-69
2022/07/02 06:24:20;;;;;;;1.13;1.13;;;17.80;99.90;;;;;;5016388;28;20212;-69
2022/07/02 06:26:45;;;;;;;1.00;1.00;;;17.90;99.90;;;;;;5017722;28;20617;-70
2022/07/02 06:29:11;;;;;;;1.43;1.33;;;17.90;99.90;;;;;;5015736;28;20188;-67
2022/07/02 06:31:37;;;;;;;1.00;1.00;;;17.90;99.90;;;;;;5016956;28;20227;-70
2022/07/02 06:34:05;;;;;;;1.00;1.00;;;17.90;99.90;;;;;;5016456;28;20225;-69
2022/07/02 06:36:31;;;;;;;1.03;1.03;;;18.00;99.90;;;;;;5016339;28;20457;-70
2022/07/02 06:38:57;;;;;;;1.07;1.07;;;18.20;99.90;;;;;;5016633;28;20466;-69
2022/07/02 06:44:07;;;;;;;1.23;1.20;;;18.40;99.90;;;;;;5015470;28;20248;-69
2022/07/02 06:46:34;;;;;;;3.27;2.93;;;18.50;99.90;;;;;;5016753;28;20384;-70
2022/07/02 06:49:00;;;;;;;3.30;2.73;;;18.60;99.90;;;;;;5016518;28;20417;-70
2022/07/02 06:51:25;;;;;;;1.33;1.33;;;18.60;99.90;;;;;;5016077;28;20396;-69
2022/07/02 06:53:51;;;;;;;1.50;1.40;;;18.70;99.90;;;;;;5015908;28;20950;-68
2022/07/02 06:56:17;;;;;;;1.03;1.03;;;18.90;99.90;;;;;;5016415;28;20324;-70
2022/07/02 06:58:42;;;;;;;1.90;1.23;;;19.00;99.90;;;;;;5015940;28;20206;-70
2022/07/02 07:01:09;;;;;;;1.03;0.93;;;19.30;99.90;;;;;;5016567;28;20182;-68
2022/07/02 07:03:35;;;;;;;0.80;0.80;;;19.50;99.90;;;;;;5015888;28;20288;-69
2022/07/02 07:06:00;;;;;;;0.70;0.70;;;19.60;99.90;;;;;;5015694;28;20440;-69
2022/07/02 07:08:26;;;;;;;1.20;1.10;;;19.80;99.90;;;;;;5015835;28;20167;-68
2022/07/02 07:10:51;;;;;;;1.03;0.93;;;19.80;99.90;;;;;;5016034;28;20181;-69
2022/07/02 07:13:17;;;;;;;1.00;1.00;;;20.00;99.90;;;;;;5015479;28;20199;-69
2022/07/02 07:15:42;;;;;;;0.90;0.90;;;20.10;99.90;;;;;;5015858;28;20260;-69
2022/07/02 07:18:08;;;;;;;3.13;0.90;;;20.30;99.90;;;;;;5016096;28;20206;-70
2022/07/02 07:20:36;;;;;;;1.10;1.00;;;20.30;99.90;;;;;;5015588;28;20542;-71
2022/07/02 07:23:01;;;;;;;0.70;0.70;;;20.40;99.90;;;;;;5015278;28;20175;-70
2022/07/02 07:25:32;;;;;;;0.80;0.80;;;20.60;99.90;;;;;;5015824;28;20428;-70
2022/07/02 07:27:57;;;;;;;1.00;1.00;;;20.80;99.90;;;;;;5015972;28;20197;-70
2022/07/02 07:30:23;;;;;;;0.70;0.70;;;21.10;99.90;;;;;;5016189;28;20508;-69
2022/07/02 07:32:49;;;;;;;0.80;0.80;;;21.40;99.90;;;;;;5014778;28;20179;-69
2022/07/02 07:35:14;;;;;;;0.70;0.70;;;21.80;99.90;;;;;;5014944;28;20281;-70
2022/07/02 07:37:40;;;;;;;0.80;0.80;;;22.30;99.90;;;;;;5015564;28;20735;-70
2022/07/02 07:40:07;;;;;;;0.80;0.80;;;23.00;99.90;;;;;;5015460;28;20253;-71
2022/07/02 07:42:33;;;;;;;0.73;0.70;;;23.70;99.60;;;;;;5015001;28;20171;-70
2022/07/02 07:44:59;;;;;;;0.57;0.57;;;24.50;99.10;;;;;;5013659;28;21074;-69
2022/07/02 07:47:24;;;;;;;0.70;0.60;;;25.40;95.70;;;;;;5013865;28;20512;-71
2022/07/02 07:49:50;;;;;;;0.70;0.70;;;26.20;94.40;;;;;;5014726;28;20445;-71
2022/07/02 07:52:15;;;;;;;0.80;0.80;;;27.20;93.00;;;;;;5014889;28;20571;-70
2022/07/02 07:54:41;;;;;;;1.00;0.90;;;28.30;90.90;;;;;;5013874;28;20199;-74
2022/07/02 07:57:07;;;;;;;1.00;1.00;;;29.40;86.00;;;;;;5014996;28;20542;-73
2022/07/02 07:59:32;;;;;;;0.97;0.97;;;30.00;82.00;;;;;;5015202;28;20249;-71
2022/07/02 08:01:58;;;;;;;0.90;0.90;;;30.50;76.60;;;;;;5014815;28;20215;-71
2022/07/02 08:04:24;;;;;;;1.40;1.40;;;31.00;77.20;;;;;;5013928;28;20199;-72
2022/07/02 08:06:50;;;;;;;0.60;0.60;;;31.70;73.60;;;;;;5013982;28;20185;-71
2022/07/02 08:09:15;;;;;;;0.70;0.70;;;32.40;73.80;;;;;;5013516;28;20183;-71
2022/07/02 08:11:41;;;;;;;0.90;0.90;;;32.60;68.10;;;;;;5013553;28;20175;-68
2022/07/02 08:14:07;;;;;;;1.00;1.00;;;32.50;66.80;;;;;;5013943;28;20211;-69
2022/07/02 08:16:33;;;;;;;0.80;0.80;;;32.40;66.40;;;;;;5014821;28;20187;-69
2022/07/02 08:18:58;;;;;;;3.13;1.23;;;32.30;65.10;;;;;;5014486;28;20210;-71
2022/07/02 08:21:24;;;;;;;1.17;0.97;;;32.20;63.70;;;;;;5014958;28;20406;-71
2022/07/02 08:23:50;;;;;;;0.80;0.80;;;32.60;64.70;;;;;;5013911;28;20236;-69
2022/07/02 08:26:16;;;;;;;0.90;0.90;;;33.30;60.00;;;;;;5014412;28;20251;-68
2022/07/02 08:28:42;;;;;;;1.10;1.10;;;33.50;59.60;;;;;;5014789;28;20198;-69
2022/07/02 08:31:07;;;;;;;0.83;0.83;;;33.20;57.90;;;;;;5014535;28;20171;-68
2022/07/02 08:33:33;;;;;;;0.80;0.80;;;33.20;59.30;;;;;;5013713;28;20941;-69
2022/07/02 08:35:59;;;;;;;0.83;0.83;;;33.40;57.90;;;;;;5014322;28;20218;-71
2022/07/02 08:38:25;;;;;;;1.00;1.00;;;33.70;58.50;;;;;;5014513;28;20723;-71
2022/07/02 08:40:50;;;;;;;0.83;0.83;;;34.00;57.80;;;;;;5014922;28;20413;-70
2022/07/02 08:43:17;;;;;;;1.03;1.03;;;34.10;58.50;;;;;;5013918;28;20199;-71
2022/07/02 08:45:43;;;;;;;0.80;0.80;;;34.30;55.60;;;;;;5013674;28;20175;-70
2022/07/02 08:48:12;;;;;;;0.83;0.83;;;34.40;55.70;;;;;;5013356;28;20436;-75
2022/07/02 08:50:39;;;;;;;0.90;0.90;;;34.60;56.30;;;;;;5013408;28;20430;-71
2022/07/02 08:53:06;;;;;;;0.80;0.80;;;34.80;55.40;;;;;;5013627;28;20417;-70
2022/07/02 08:55:33;;;;;;;1.27;1.27;;;34.70;56.40;;;;;;5014146;28;20426;-69
2022/07/02 08:57:59;;;;;;;1.00;1.00;;;34.40;57.60;;;;;;5014032;28;20449;-69
2022/07/02 09:00:25;;;;;;;1.13;0.80;;;34.30;57.60;;;;;;5013974;28;20433;-69
2022/07/02 09:02:53;;;;;;;0.90;0.90;;;34.10;57.70;;;;;;5013720;28;20774;-69
2022/07/02 09:05:21;;;;;;;0.83;0.83;;;33.90;56.20;;;;;;5013499;28;20522;-71
2022/07/02 09:07:47;;;;;;;0.90;0.90;;;33.70;56.90;;;;;;5014139;28;20413;-70
2022/07/02 09:10:17;;;;;;;1.00;1.00;;;33.80;57.20;;;;;;5012734;28;20426;-73
2022/07/02 09:12:44;;;;;;;1.10;1.10;;;34.30;57.20;;;;;;5013490;28;21000;-71
2022/07/02 09:15:10;;;;;;;0.97;0.97;;;34.80;56.40;;;;;;5013859;28;20781;-71
2022/07/02 09:17:37;;;;;;;1.07;1.07;;;34.70;55.40;;;;;;5013920;28;20450;-70
2022/07/02 09:20:04;;;;;;;1.17;1.17;;;34.30;55.30;;;;;;5013590;28;20501;-69
2022/07/02 09:22:36;;;;;;;0.80;0.80;;;33.90;53.60;;;;;;5013512;28;20417;-68
2022/07/02 09:25:19;;;;;;;1.10;1.00;;;33.80;54.10;;;;;;5013725;28;20433;-70
2022/07/02 09:27:47;;;;;;;0.90;0.90;;;33.80;54.30;;;;;;5013974;28;20759;-72
2022/07/02 09:30:16;;;;;;;1.10;1.00;;;34.30;53.90;;;;;;5013755;28;20410;-68
2022/07/02 09:32:46;;;;;;;1.23;0.80;;;34.50;52.80;;;;;;5013098;28;20410;-70
2022/07/02 09:35:22;;;;;;;0.90;0.90;;;34.40;52.80;;;;;;5013715;28;20426;-71
2022/07/02 09:37:49;;;;;;;0.87;0.87;;;34.40;51.90;;;;;;5012302;28;20972;-70
2022/07/02 09:40:15;;;;;;;0.83;0.83;;;33.70;52.20;;;;;;5013638;28;20747;-68
2022/07/02 09:42:46;;;;;;;2.30;2.10;;;33.20;52.40;;;;;;5013309;28;20471;-68
2022/07/02 09:45:13;;;;;;;3.23;2.97;;;32.80;52.60;;;;;;5013886;28;20483;-68
2022/07/02 09:47:48;;;;;;;1.10;1.10;;;32.90;53.00;;;;;;5013118;28;20411;-68
2022/07/02 09:50:15;;;;;;;7.60;6.80;;;33.10;52.10;;;;;;5013804;28;20411;-68
2022/07/02 09:52:58;;;;;;;2.33;2.13;;;33.10;53.60;;;;;;5013148;28;20428;-67
2022/07/02 09:55:24;;;;;;;2.03;1.90;;;33.30;52.60;;;;;;5013642;28;20425;-67
2022/07/02 09:57:55;;;;;;;1.00;1.00;;;33.50;52.30;;;;;;5017891;28;20452;-69
2022/07/02 10:00:24;;;;;;;1.10;1.10;;;33.70;51.30;;;;;;5017488;28;20452;-66
2022/07/02 10:02:51;;;;;;;0.87;0.87;;;33.40;52.40;;;;;;5016695;28;20461;-69
2022/07/02 10:05:26;;;;;;;0.90;0.90;;;33.20;51.60;;;;;;5016944;28;20512;-69
2022/07/02 10:07:56;;;;;;;1.10;1.10;;;33.50;51.60;;;;;;5017415;28;20500;-69
2022/07/02 10:10:42;;;;;;;1.30;1.30;;;33.60;50.80;;;;;;5017300;28;20413;-69
2022/07/02 10:13:10;;;;;;;2.60;1.00;;;33.60;51.10;;;;;;5016825;28;20517;-70
2022/07/02 10:15:40;;;;;;;1.30;1.30;;;33.50;51.70;;;;;;5017202;28;20501;-69
2022/07/02 10:18:06;;;;;;;2.57;2.37;;;33.30;52.20;;;;;;5016735;28;20575;-68
2022/07/02 10:20:33;;;;;;;1.67;1.57;;;33.70;51.80;;;;;;5017156;28;20449;-67
2022/07/02 10:23:02;;;;;;;1.10;1.10;;;33.80;49.90;;;;;;5016512;28;20776;-69
2022/07/02 10:25:29;;;;;;;1.00;1.00;;;33.60;49.80;;;;;;5016578;28;20480;-67
2022/07/02 10:27:56;;;;;;;1.10;1.10;;;33.40;50.00;;;;;;5016992;28;20892;-69
2022/07/02 10:30:28;;;;;;;1.10;1.10;;;33.30;49.90;;;;;;5016855;28;20414;-66
2022/07/02 10:32:54;;;;;;;1.23;1.23;;;33.10;50.00;;;;;;5016328;28;20438;-69
2022/07/02 10:35:22;;;;;;;0.90;0.90;;;32.70;49.80;;;;;;5017018;28;20762;-66
2022/07/02 10:37:48;;;;;;;1.20;1.20;;;32.50;49.60;;;;;;5016570;28;20199;-69
2022/07/02 10:40:21;;;;;;;1.13;1.13;;;32.40;50.20;;;;;;5016392;28;20448;-69
2022/07/02 10:42:48;;;;;;;1.00;1.00;;;32.30;50.70;;;;;;5016472;28;20838;-70
2022/07/02 10:45:19;;;;;;;0.80;0.80;;;32.60;50.30;;;;;;5016743;28;20444;-69
2022/07/02 10:48:05;;;;;;;0.93;0.93;;;32.70;50.30;;;;;;5017038;28;20414;-69
2022/07/02 10:50:39;;;;;;;0.77;0.77;;;32.80;50.70;;;;;;5016662;28;20868;-67
2022/07/02 10:53:22;;;;;;;0.97;0.97;;;32.50;50.00;;;;;;5016246;28;20449;-68
2022/07/02 10:55:50;;;;;;;1.10;1.10;;;32.10;51.00;;;;;;5016107;28;20429;-70
2022/07/02 10:58:24;;;;;;;0.93;0.93;;;31.70;50.90;;;;;;5016424;28;20792;-70
2022/07/02 11:00:50;;;;;;;1.07;1.07;;;31.80;51.60;;;;;;5016196;28;20766;-67
2022/07/02 11:03:24;;;;;;;0.83;0.83;;;31.90;50.50;;;;;;5015738;28;20471;-69
2022/07/02 11:06:05;;;;;;;0.87;0.87;;;32.00;49.40;;;;;;5016169;28;20434;-68
2022/07/02 11:08:49;;;;;;;0.70;0.70;;;;;;;;;;5015233;28;20488;-68
2022/07/02 11:11:17;;;;;;;0.70;0.70;;;;;;;;;;5015894;28;20422;-69
2022/07/02 11:13:50;;;;;;;0.70;0.70;;;;;;;;;;5015857;28;20404;-67
2022/07/02 11:16:24;;;;;;;1.50;0.73;;;31.90;49.30;;;;;;5016163;28;20376;-67
2022/07/02 11:18:51;;;;;;;1.00;1.00;;;30.50;50.70;;;;;;5015817;28;20427;-67
2022/07/02 11:21:18;;;;;;;0.83;0.83;;;29.60;53.50;;;;;;5015710;28;20440;-70
2022/07/02 11:23:44;;;;;;;1.00;0.90;;;28.60;54.50;;;;;;5015089;28;20461;-66
2022/07/02 11:26:15;;;;;;;0.50;0.50;;;27.90;53.70;;;;;;5015589;28;20454;-68
2022/07/02 11:28:41;;;;;;;0.90;0.80;;;27.10;55.30;;;;;;5015821;28;20382;-66
2022/07/02 11:31:08;;;;;;;0.70;0.70;;;26.60;56.80;;;;;;5015725;28;20410;-67
2022/07/02 11:33:33;;;;;;;1.30;1.20;;;26.40;55.60;;;;;;5013781;28;20977;-67
2022/07/02 11:36:00;;;;;;;0.60;0.60;;;26.10;56.20;;;;;;5016096;28;20410;-68
2022/07/02 11:38:26;;;;;;;0.80;0.80;;;25.90;57.50;;;;;;5015084;28;20677;-69
2022/07/02 11:40:52;;;;;;;0.67;0.67;;;25.60;58.70;;;;;;5015669;28;20385;-66
2022/07/02 11:43:19;;;;;;;0.77;0.77;;;25.50;59.00;;;;;;5014900;28;20502;-68
2022/07/02 11:45:45;;;;;;;0.70;0.70;;;25.50;59.20;;;;;;5015452;28;20784;-67
2022/07/02 11:48:20;;;;;;;0.73;0.73;;;25.40;59.80;;;;;;5015566;28;20380;-68
2022/07/02 11:50:57;;;;;;;0.80;0.80;;;25.30;59.20;;;;;;5015570;28;20425;-69
2022/07/02 11:53:23;;;;;;;1.03;0.97;;;25.30;61.70;;;;;;5014894;28;20433;-68
2022/07/02 11:55:52;;;;;;;0.70;0.70;;;25.20;61.10;;;;;;5015515;28;20399;-67
2022/07/02 11:58:18;;;;;;;0.60;0.60;;;25.30;59.20;;;;;;5013897;28;20432;-68
2022/07/02 12:00:44;;;;;;;1.80;0.93;;;25.30;57.10;;;;;;5015325;28;20413;-69
2022/07/02 12:03:13;;;;;;;0.60;0.60;;;25.30;58.30;;;;;;5013447;28;20389;-68
2022/07/02 12:05:52;;;;;;;0.77;0.77;;;25.30;59.40;;;;;;5014996;28;20476;-68
2022/07/02 12:08:18;;;;;;;0.63;0.63;;;25.30;59.30;;;;;;5014953;28;20419;-67
2022/07/02 12:10:44;;;;;;;1.87;1.00;;;25.20;60.10;;;;;;5015216;28;20388;-68
2022/07/02 12:13:10;;;;;;;0.80;0.80;;;25.30;61.60;;;;;;5014571;28;20459;-67
2022/07/02 12:15:49;;;;;;;0.70;0.70;;;25.30;59.60;;;;;;5013686;28;20572;-69
2022/07/02 12:18:17;;;;;;;0.60;0.60;;;25.20;59.80;;;;;;5014875;28;20937;-67
2022/07/02 12:20:42;;;;;;;1.10;1.00;;;25.20;60.70;;;;;;5014733;28;20436;-69
2022/07/02 12:23:08;;;;;;;0.80;0.80;;;25.20;60.90;;;;;;5014481;28;20464;-67
2022/07/02 12:25:47;;;;;;;0.97;0.50;;;25.10;61.00;;;;;;5014615;28;20179;-69
2022/07/02 12:31:00;;;;;;;1.00;0.90;;;25.10;60.80;;;;;;5014790;28;20904;-68
2022/07/02 12:33:31;;;;;;;0.77;0.77;;;25.20;61.70;;;;;;5014082;28;20421;-67
2022/07/02 12:36:00;;;;;;;0.60;0.60;;;25.20;61.40;;;;;;5014577;28;20171;-69
2022/07/02 12:38:27;;;;;;;1.10;1.10;;;25.30;59.60;;;;;;5014459;28;20456;-68
2022/07/02 12:41:00;;;;;;;0.80;0.80;;;25.20;62.00;;;;;;5014287;28;20457;-68
2022/07/02 12:43:26;;;;;;;5.63;1.03;;;25.20;62.30;;;;;;5014182;28;20488;-67
2022/07/02 12:45:51;;;;;;;1.00;1.00;;;25.30;63.60;;;;;;5014785;28;20414;-67
2022/07/02 12:48:19;;;;;;;1.23;1.23;;;25.30;65.40;;;;;;5014316;28;20425;-68
2022/07/02 12:50:46;;;;;;;0.87;0.87;;;25.30;63.60;;;;;;5014512;28;20234;-67
2022/07/02 12:53:20;;;;;;;0.90;0.90;;;25.40;63.70;;;;;;5013879;28;20419;-66
2022/07/02 12:55:58;;;;;;;1.00;1.00;;;25.50;61.70;;;;;;4994754;28;20389;-67
2022/07/02 12:58:24;;;;;;;0.83;0.83;;;25.40;59.90;;;;;;4994387;28;20445;-68
2022/07/02 13:00:51;;;;;;;0.70;0.70;;;25.40;61.20;;;;;;4994600;28;20936;-67
2022/07/02 13:03:19;;;;;;;0.80;0.80;;;25.40;62.10;;;;;;4993907;28;20408;-66
2022/07/02 13:05:50;;;;;;;0.80;0.80;;;25.40;61.40;;;;;;4994406;28;20425;-67
2022/07/02 13:08:17;;;;;;;0.97;0.97;;;25.40;60.80;;;;;;4996298;28;20403;-68
2022/07/02 13:10:46;;;;;;;1.80;0.83;;;25.40;61.00;;;;;;5014156;28;20505;-66
2022/07/02 13:13:12;;;;;;;0.90;0.90;;;25.30;63.10;;;;;;5013505;28;20408;-69
2022/07/02 13:15:38;;;;;;;0.73;0.73;;;25.30;62.20;;;;;;5013957;28;20406;-67
2022/07/02 13:18:04;;;;;;;0.73;0.73;;;25.30;63.10;;;;;;5013846;28;20432;-69
2022/07/02 13:20:30;;;;;;;2.00;1.23;;;25.30;63.20;;;;;;5012648;28;20661;-67
2022/07/02 13:22:56;;;;;;;0.70;0.70;;;25.30;64.20;;;;;;5013172;28;20393;-67
2022/07/02 13:25:22;;;;;;;0.80;0.80;;;25.30;63.80;;;;;;5013951;28;20189;-67
2022/07/02 13:27:48;;;;;;;0.90;0.90;;;25.40;64.20;;;;;;5012626;28;20925;-67
2022/07/02 13:30:15;;;;;;;1.00;0.90;;;25.40;63.70;;;;;;5013534;28;20178;-66
2022/07/02 13:32:41;;;;;;;2.40;0.90;;;25.50;61.20;;;;;;5013256;28;20400;-67
2022/07/02 13:35:09;;;;;;;1.20;1.10;;;25.50;63.20;;;;;;5014072;28;20436;-67
2022/07/02 13:37:35;;;;;;;0.80;0.80;;;25.50;62.40;;;;;;5013391;28;20449;-68
2022/07/02 13:40:01;;;;;;;0.50;0.50;;;25.50;62.50;;;;;;5012270;28;20397;-68
2022/07/02 13:42:26;;;;;;;0.73;0.73;;;25.50;63.80;;;;;;5013356;28;20419;-68
2022/07/02 13:44:52;;;;;;;0.90;0.90;;;25.50;64.00;;;;;;5013450;28;20187;-66
2022/07/02 13:47:18;;;;;;;1.17;1.07;;;25.50;64.00;;;;;;5013778;28;20224;-66
2022/07/02 13:49:44;;;;;;;0.90;0.90;;;25.60;64.80;;;;;;5013652;28;20194;-69
2022/07/02 13:52:09;;;;;;;1.37;1.27;;;25.60;64.50;;;;;;5013378;28;20170;-66
2022/07/02 13:54:35;;;;;;;0.90;0.90;;;25.60;65.30;;;;;;5013103;28;20412;-68
2022/07/02 13:57:01;;;;;;;0.90;0.90;;;25.70;65.40;;;;;;5013582;28;20179;-68
2022/07/02 13:59:27;;;;;;;1.30;1.20;;;25.70;63.80;;;;;;5013365;28;20203;-68
2022/07/02 14:01:53;;;;;;;0.90;0.90;;;25.70;64.30;;;;;;5013449;28;20167;-67
2022/07/02 14:04:19;;;;;;;0.90;0.90;;;25.70;64.90;;;;;;5011693;28;20433;-71
2022/07/02 14:06:45;;;;;;;1.10;1.10;;;25.80;65.10;;;;;;5013118;28;20758;-67
2022/07/02 14:09:11;;;;;;;1.10;1.00;;;25.80;64.60;;;;;;5012785;28;20189;-68
2022/07/02 14:11:37;;;;;;;1.10;1.10;;;25.80;63.70;;;;;;5013227;28;20171;-70
2022/07/02 14:14:02;;;;;;;0.90;0.90;;;25.80;64.80;;;;;;5012932;28;20755;-67
2022/07/02 14:16:28;;;;;;;1.00;1.00;;;25.80;66.30;;;;;;5013557;28;20206;-68
2022/07/02 14:18:54;;;;;;;0.90;0.90;;;25.80;66.10;;;;;;5013434;28;20210;-66
2022/07/02 14:21:21;;;;;;;1.20;1.20;;;25.80;64.60;;;;;;5013393;28;20179;-69
2022/07/02 14:23:47;;;;;;;0.97;0.97;;;25.80;66.10;;;;;;5012559;28;20199;-67
2022/07/02 14:26:13;;;;;;;0.83;0.83;;;25.80;65.10;;;;;;5013371;28;20403;-69
2022/07/02 14:28:39;;;;;;;0.90;0.90;;;25.80;63.30;;;;;;5013557;28;20171;-66
2022/07/02 14:31:04;;;;;;;0.70;0.70;;;25.90;62.30;;;;;;5012936;28;20714;-67
2022/07/02 14:33:30;;;;;;;1.10;1.10;;;25.90;63.00;;;;;;5012759;28;20191;-67
2022/07/02 14:35:57;;;;;;;0.87;0.87;;;25.90;62.70;;;;;;5013261;28;20564;-70
2022/07/02 14:38:23;;;;;;;0.77;0.77;;;25.90;63.60;;;;;;5012913;28;20884;-67
2022/07/02 14:40:49;;;;;;;0.90;0.90;;;25.90;63.90;;;;;;5013148;28;20441;-67
2022/07/02 14:43:15;;;;;;;0.80;0.80;;;25.90;64.90;;;;;;5014223;28;20768;-67
2022/07/02 14:45:42;;;;;;;1.00;1.00;;;25.90;63.90;;;;;;5016521;28;20482;-68
2022/07/02 14:48:08;;;;;;;0.80;0.80;;;25.90;63.60;;;;;;5016790;28;20740;-69
2022/07/02 14:50:34;;;;;;;0.80;0.80;;;25.90;64.20;;;;;;5016792;28;20391;-68
2022/07/02 14:53:01;;;;;;;0.70;0.70;;;25.80;64.60;;;;;;5016069;28;20182;-69
2022/07/02 14:55:26;;;;;;;1.03;1.03;;;25.90;63.70;;;;;;5016506;28;20402;-68
2022/07/02 14:57:52;;;;;;;0.90;0.90;;;25.80;64.60;;;;;;5016452;28;20936;-68
2022/07/02 15:00:18;;;;;;;2.10;1.00;;;25.80;64.00;;;;;;5016012;28;20220;-67
2022/07/02 15:02:43;;;;;;;1.07;1.07;;;25.80;65.00;;;;;;5016116;28;20167;-67
2022/07/02 15:05:09;;;;;;;1.10;1.10;;;25.80;63.70;;;;;;5016008;28;20246;-67
2022/07/02 15:07:37;;;;;;;1.00;1.00;;;25.80;63.70;;;;;;5015064;28;20198;-69
2022/07/02 15:10:07;;;;;;;1.10;1.10;;;25.80;63.80;;;;;;5016292;28;20837;-69
2022/07/02 15:12:34;;;;;;;1.00;1.00;;;25.80;65.20;;;;;;5015785;28;20387;-68
2022/07/02 15:17:45;;;;;;;0.70;0.70;;;25.80;64.00;;;;;;5016456;28;20923;-68
2022/07/02 15:20:11;;;;;;;1.90;0.90;;;25.70;63.90;;;;;;5016012;28;20412;-68
2022/07/02 15:22:43;;;;;;;0.70;0.70;;;25.70;63.70;;;;;;5015293;28;20167;-71
2022/07/02 15:25:09;;;;;;;0.80;0.80;;;25.70;64.60;;;;;;5015690;28;20426;-67
2022/07/02 15:27:36;;;;;;;0.97;0.97;;;25.70;63.40;;;;;;5015232;28;20376;-69
2022/07/02 15:30:04;;;;;;;1.17;1.00;;;25.70;63.20;;;;;;5015842;28;20449;-66
2022/07/02 15:32:31;;;;;;;0.80;0.80;;;25.70;62.10;;;;;;5015328;28;20392;-67
2022/07/02 15:35:03;;;;;;;1.10;1.10;;;25.70;62.60;;;;;;5015600;28;20950;-70
2022/07/02 15:37:38;;;;;;;0.90;0.70;;;25.70;61.40;;;;;;5015700;28;20402;-67
2022/07/02 15:40:06;;;;;;;0.97;0.97;;;25.70;62.70;;;;;;5015654;28;20456;-67
2022/07/02 15:42:32;;;;;;;0.70;0.70;;;25.70;62.00;;;;;;5015043;28;20426;-68
2022/07/02 15:44:58;;;;;;;0.83;0.83;;;25.80;61.00;;;;;;5015667;28;20467;-68
2022/07/02 15:47:24;;;;;;;0.83;0.83;;;25.70;60.00;;;;;;5015682;28;20380;-67
2022/07/02 15:49:51;;;;;;;0.93;0.93;;;25.70;62.20;;;;;;5015430;28;20467;-68
2022/07/02 15:52:30;;;;;;;0.80;0.80;;;25.70;63.70;;;;;;5015006;28;20404;-67
2022/07/02 15:55:09;;;;;;;2.50;1.00;;;25.80;63.10;;;;;;5013610;28;20409;-68
2022/07/02 15:57:55;;;;;;;1.00;1.00;;;25.70;63.70;;;;;;5015439;28;20410;-68
2022/07/02 16:00:22;;;;;;;0.70;0.70;;;25.70;63.40;;;;;;4996169;28;20394;-68
2022/07/02 16:02:49;;;;;;;0.80;0.80;;;25.70;62.80;;;;;;4995312;28;20545;-68
2022/07/02 16:05:16;;;;;;;0.60;0.60;;;25.70;62.00;;;;;;4995422;28;20458;-66
2022/07/02 16:07:50;;;;;;;0.70;0.70;;;25.70;61.20;;;;;;4995730;28;20725;-68
2022/07/02 16:10:17;;;;;;;0.80;0.80;;;25.70;61.40;;;;;;4995635;28;20403;-69
2022/07/02 16:12:45;;;;;;;0.60;0.60;;;25.70;61.80;;;;;;4995826;28;20418;-69
2022/07/02 16:15:12;;;;;;;0.93;0.93;;;25.70;60.60;;;;;;5013309;28;20811;-66
2022/07/02 16:17:40;;;;;;;0.90;0.90;;;25.70;60.70;;;;;;5014989;28;20735;-67
2022/07/02 16:20:08;;;;;;;0.70;0.70;;;25.70;61.70;;;;;;5014899;28;20721;-67
2022/07/02 16:22:34;;;;;;;6.80;1.20;;;25.80;61.20;;;;;;5014485;28;20399;-70
2022/07/02 16:25:02;;;;;;;1.10;1.00;;;25.70;62.60;;;;;;5014567;28;20412;-68
2022/07/02 16:27:27;;;;;;;1.27;1.27;;;25.70;62.90;;;;;;5014725;28;20689;-68
2022/07/02 16:29:53;;;;;;;1.00;1.00;;;25.70;62.30;;;;;;5015198;28;20406;-68
2022/07/02 16:32:33;;;;;;;1.90;1.17;;;25.70;61.90;;;;;;5014378;28;20171;-68
2022/07/02 16:35:17;;;;;;;0.97;0.97;;;25.70;61.90;;;;;;5014558;28;20179;-68
2022/07/02 16:37:44;;;;;;;0.87;0.87;;;25.70;62.80;;;;;;5013501;28;20482;-68
2022/07/02 16:40:11;;;;;;;1.17;1.17;;;25.70;62.90;;;;;;5013011;28;20392;-69
2022/07/02 16:42:38;;;;;;;0.80;0.80;;;25.70;63.50;;;;;;5014181;28;20387;-65
2022/07/02 16:45:05;;;;;;;0.77;0.77;;;25.70;63.00;;;;;;5014469;28;20425;-66
2022/07/02 16:47:40;;;;;;;1.67;1.43;;;25.70;61.00;;;;;;5014201;28;20400;-69
2022/07/02 16:50:08;;;;;;;1.20;1.20;;;25.70;61.50;;;;;;5014504;28;20405;-69
2022/07/02 16:52:54;;;;;;;0.73;0.73;;;25.60;62.20;;;;;;5014337;28;20427;-67
2022/07/02 16:55:20;;;;;;;0.73;0.73;;;25.60;62.00;;;;;;5014162;28;20425;-67
2022/07/02 16:57:46;;;;;;;1.20;1.10;;;25.60;62.90;;;;;;5014214;28;20424;-69
2022/07/02 17:00:12;;;;;;;1.07;1.07;;;25.60;61.60;;;;;;5014305;28;20406;-66
2022/07/02 17:02:40;;;;;;;0.80;0.80;;;25.60;62.00;;;;;;5014143;28;20256;-69
2022/07/02 17:05:07;;;;;;;0.93;0.93;;;25.60;61.90;;;;;;5013197;28;20421;-67